createdAt,value
2022-12-31T00:00:00.206Z,102228.69
2022-12-31T00:02:35.972Z,102232.69
2022-12-31T00:05:05.542Z,102240.97
2022-12-31T00:10:05.367Z,102234.66
2022-12-31T00:12:40.150Z,102235.38
2022-12-31T00:15:11.821Z,102238.63
2022-12-31T00:17:38.835Z,102239.78
2022-12-31T00:20:08.899Z,102247.28
2022-12-31T00:22:36.196Z,102236.47
2022-12-31T00:25:03.402Z,102237.78
2022-12-31T00:27:33.940Z,102234.81
2022-12-31T00:30:05.053Z,102237.34
2022-12-31T00:32:36.321Z,102243.56
2022-12-31T00:35:03.495Z,102235.28
2022-12-31T00:37:33.049Z,102232.69
2022-12-31T00:40:03.196Z,102223.28
2022-12-31T00:42:31.912Z,102231.25
2022-12-31T00:45:06.142Z,102236.31
2022-12-31T00:47:36.421Z,102232.53
2022-12-31T00:50:36.068Z,102226.00
2022-12-31T00:53:10.375Z,102224.44
2022-12-31T00:55:39.419Z,102223.66
2022-12-31T00:58:11.630Z,102225.34
2022-12-31T01:00:44.644Z,102227.16
2022-12-31T01:03:13.158Z,102225.38
2022-12-31T01:05:40.680Z,102211.38
2022-12-31T01:08:08.207Z,102223.28
2022-12-31T01:10:54.631Z,102224.31
2022-12-31T01:13:22.410Z,102220.84
2022-12-31T01:15:55.055Z,102226.00
2022-12-31T01:18:24.499Z,102228.94
2022-12-31T01:20:53.904Z,102215.81
2022-12-31T01:23:22.100Z,102218.94
2022-12-31T01:25:49.337Z,102224.28
2022-12-31T01:28:16.584Z,102221.53
2022-12-31T01:30:44.213Z,102225.91
2022-12-31T01:33:11.664Z,102223.38
2022-12-31T01:35:41.033Z,102219.06
2022-12-31T01:38:09.134Z,102207.59
2022-12-31T01:40:41.456Z,102218.44
2022-12-31T01:43:17.146Z,102212.97
2022-12-31T01:45:47.398Z,102210.53
2022-12-31T01:48:21.067Z,102210.47
2022-12-31T01:50:50.370Z,102215.84
2022-12-31T01:53:19.620Z,102216.81
2022-12-31T01:55:55.984Z,102218.44
2022-12-31T01:58:43.033Z,102225.63
2022-12-31T02:01:20.686Z,102228.31
2022-12-31T02:03:50.956Z,102240.63
2022-12-31T02:06:22.985Z,102236.34
2022-12-31T02:08:51.789Z,102241.50
2022-12-31T02:11:22.645Z,102247.47
2022-12-31T02:13:59.021Z,102244.78
2022-12-31T02:16:34.653Z,102247.28
2022-12-31T02:19:28.165Z,102249.88
2022-12-31T02:22:20.439Z,102257.31
2022-12-31T02:24:51.847Z,102251.91
2022-12-31T02:27:34.804Z,102261.59
2022-12-31T02:30:11.688Z,102252.28
2022-12-31T02:32:51.079Z,102242.97
2022-12-31T02:35:25.913Z,102251.66
2022-12-31T02:37:55.758Z,102244.81
2022-12-31T02:40:27.134Z,102245.19
2022-12-31T02:42:59.165Z,102259.59
2022-12-31T02:45:37.925Z,102257.38
2022-12-31T02:48:18.133Z,102254.69
2022-12-31T02:51:03.600Z,102241.50
2022-12-31T02:53:42.903Z,102244.94
2022-12-31T02:56:28.803Z,102238.28
2022-12-31T02:59:25.159Z,102231.72
2022-12-31T03:02:17.415Z,102229.66
2022-12-31T03:04:58.262Z,102224.59
2022-12-31T03:07:32.762Z,102216.66
2022-12-31T03:10:01.435Z,102208.81
2022-12-31T03:12:51.219Z,102202.03
2022-12-31T03:15:24.752Z,102211.81
2022-12-31T03:18:21.390Z,102211.97
2022-12-31T03:21:08.661Z,102208.47
2022-12-31T03:23:40.690Z,102204.19
2022-12-31T03:26:12.742Z,102202.53
2022-12-31T03:28:40.918Z,102203.22
2022-12-31T03:31:13.651Z,102204.06
2022-12-31T03:33:42.712Z,102202.41
2022-12-31T03:36:17.189Z,102194.22
2022-12-31T03:38:49.867Z,102201.28
2022-12-31T03:41:23.992Z,102191.69
2022-12-31T03:43:52.591Z,102199.44
2022-12-31T03:46:23.764Z,102198.66
2022-12-31T03:48:53.720Z,102195.16
2022-12-31T03:54:07.248Z,102196.81
2022-12-31T03:56:35.877Z,102193.59
2022-12-31T03:59:02.920Z,102190.97
2022-12-31T04:01:31.382Z,102199.75
2022-12-31T04:03:59.141Z,102192.56
2022-12-31T04:06:26.467Z,102190.19
2022-12-31T04:08:58.249Z,102200.81
2022-12-31T04:11:28.613Z,102195.69
2022-12-31T04:13:59.383Z,102208.91
2022-12-31T04:16:26.789Z,102201.88
2022-12-31T04:18:56.926Z,102216.38
2022-12-31T04:21:24.052Z,102224.50
2022-12-31T04:23:57.432Z,102225.31
2022-12-31T04:26:26.947Z,102219.84
2022-12-31T04:28:59.315Z,102210.31
2022-12-31T04:31:29.755Z,102214.69
2022-12-31T04:34:27.059Z,102221.38
2022-12-31T04:36:59.797Z,102228.44
2022-12-31T04:39:29.202Z,102221.38
2022-12-31T04:41:58.886Z,102222.22
2022-12-31T04:44:26.024Z,102217.09
2022-12-31T04:46:53.351Z,102225.66
2022-12-31T04:49:23.812Z,102228.34
2022-12-31T04:51:59.993Z,102234.50
2022-12-31T04:54:30.301Z,102232.50
2022-12-31T04:57:01.410Z,102245.69
2022-12-31T04:59:28.605Z,102243.03
2022-12-31T05:02:04.588Z,102246.50
2022-12-31T05:04:34.053Z,102235.00
2022-12-31T05:07:10.244Z,102241.97
2022-12-31T05:09:39.791Z,102241.84
2022-12-31T05:12:07.136Z,102244.28
2022-12-31T05:14:43.811Z,102245.06
2022-12-31T05:17:15.772Z,102241.72
2022-12-31T05:19:43.781Z,102242.59
2022-12-31T05:22:31.044Z,102245.22
2022-12-31T05:25:01.428Z,102243.31
2022-12-31T05:27:31.546Z,102249.75
2022-12-31T05:30:11.488Z,102247.44
2022-12-31T05:32:41.548Z,102251.53
2022-12-31T05:35:08.867Z,102258.63
2022-12-31T05:37:36.270Z,102269.44
2022-12-31T05:40:05.075Z,102263.03
2022-12-31T05:42:35.857Z,102267.78
2022-12-31T05:45:05.847Z,102271.25
2022-12-31T05:47:35.443Z,102266.91
2022-12-31T05:50:03.242Z,102271.22
2022-12-31T05:52:34.875Z,102276.41
2022-12-31T05:55:12.051Z,102280.00
2022-12-31T05:57:42.196Z,102271.84
2022-12-31T06:00:17.429Z,102276.34
2022-12-31T06:02:46.365Z,102281.59
2022-12-31T06:05:25.755Z,102270.75
2022-12-31T06:10:44.965Z,102272.63
2022-12-31T06:13:12.113Z,102282.28
2022-12-31T06:15:45.285Z,102275.06
2022-12-31T06:18:13.920Z,102286.34
2022-12-31T06:20:48.295Z,102291.38
2022-12-31T06:23:15.378Z,102286.09
2022-12-31T06:25:43.641Z,102290.34
2022-12-31T06:28:20.087Z,102283.78
2022-12-31T06:30:49.877Z,102285.44
2022-12-31T06:33:18.404Z,102283.13
2022-12-31T06:35:45.442Z,102284.91
2022-12-31T06:38:22.044Z,102287.22
2022-12-31T06:40:49.258Z,102293.47
2022-12-31T06:43:16.204Z,102286.25
2022-12-31T06:45:47.792Z,102299.16
2022-12-31T06:48:17.272Z,102303.59
2022-12-31T06:50:44.708Z,102288.81
2022-12-31T06:53:14.293Z,102294.84
2022-12-31T06:55:44.585Z,102296.34
2022-12-31T06:58:18.027Z,102298.94
2022-12-31T07:00:57.820Z,102296.34
2022-12-31T07:03:34.049Z,102302.44
2022-12-31T07:06:21.148Z,102300.88
2022-12-31T07:09:10.105Z,102305.06
2022-12-31T07:12:03.559Z,102301.56
2022-12-31T07:14:41.716Z,102292.66
2022-12-31T07:17:23.412Z,102307.44
2022-12-31T07:19:58.563Z,102314.53
2022-12-31T07:22:25.813Z,102310.09
2022-12-31T07:24:52.973Z,102306.59
2022-12-31T07:27:30.116Z,102309.91
2022-12-31T07:29:57.047Z,102313.50
2022-12-31T07:32:31.741Z,102307.53
2022-12-31T07:35:05.029Z,102307.56
2022-12-31T07:37:49.713Z,102302.94
2022-12-31T07:40:35.204Z,102304.94
2022-12-31T07:43:20.248Z,102301.66
2022-12-31T07:45:47.367Z,102305.22
2022-12-31T07:48:27.595Z,102300.78
2022-12-31T07:50:57.894Z,102310.75
2022-12-31T07:53:27.768Z,102316.91
2022-12-31T07:56:04.226Z,102310.41
2022-12-31T07:58:51.636Z,102313.16
2022-12-31T08:01:29.489Z,102314.97
2022-12-31T08:03:59.548Z,102319.34
2022-12-31T08:06:41.068Z,102328.88
2022-12-31T08:09:20.320Z,102325.38
2022-12-31T08:11:53.335Z,102333.25
2022-12-31T08:14:20.477Z,102322.81
2022-12-31T08:16:50.008Z,102321.03
2022-12-31T08:19:25.861Z,102323.50
2022-12-31T08:22:01.968Z,102331.75
2022-12-31T08:24:43.979Z,102327.78
2022-12-31T08:27:29.803Z,102327.00
2022-12-31T08:30:07.816Z,102332.94
2022-12-31T08:32:51.630Z,102330.28
2022-12-31T08:35:37.018Z,102331.53
2022-12-31T08:38:06.400Z,102337.03
2022-12-31T08:40:39.260Z,102330.94
2022-12-31T08:43:06.469Z,102340.56
2022-12-31T08:45:38.591Z,102349.59
2022-12-31T08:48:24.847Z,102350.66
2022-12-31T08:50:54.956Z,102344.66
2022-12-31T08:53:25.197Z,102347.25
2022-12-31T08:55:58.074Z,102354.19
2022-12-31T08:58:43.968Z,102366.50
2022-12-31T09:01:15.632Z,102360.59
2022-12-31T09:04:01.679Z,102375.09
2022-12-31T09:06:38.286Z,102381.69
2022-12-31T09:09:11.257Z,102372.72
2022-12-31T09:11:50.886Z,102372.31
2022-12-31T09:14:44.281Z,102369.34
2022-12-31T09:17:33.221Z,102369.09
2022-12-31T09:20:07.628Z,102366.25
2022-12-31T09:22:40.934Z,102380.91
2022-12-31T09:25:12.974Z,102367.44
2022-12-31T09:28:04.697Z,102374.25
2022-12-31T09:30:41.821Z,102384.59
2022-12-31T09:33:18.383Z,102390.44
2022-12-31T09:35:54.553Z,102385.66
2022-12-31T09:38:28.557Z,102381.66
2022-12-31T09:41:03.233Z,102383.78
2022-12-31T09:44:00.704Z,102391.97
2022-12-31T09:46:48.575Z,102389.63
2022-12-31T09:49:21.611Z,102388.94
2022-12-31T09:51:59.296Z,102393.50
2022-12-31T09:54:37.268Z,102384.88
2022-12-31T09:57:26.713Z,102391.94
2022-12-31T10:00:13.348Z,102388.53
2022-12-31T10:02:58.115Z,102383.25
2022-12-31T10:05:28.066Z,102386.78
2022-12-31T10:08:15.628Z,102384.94
2022-12-31T10:10:51.901Z,102393.84
2022-12-31T10:13:32.791Z,102392.06
2022-12-31T10:16:20.076Z,102389.41
2022-12-31T10:19:09.240Z,102380.41
2022-12-31T10:21:44.493Z,102371.44
2022-12-31T10:24:26.866Z,102374.97
2022-12-31T10:26:53.904Z,102373.34
2022-12-31T10:29:44.218Z,102372.50
2022-12-31T10:32:31.439Z,102365.03
2022-12-31T10:35:21.923Z,102366.94
2022-12-31T10:38:09.052Z,102350.06
2022-12-31T10:40:42.924Z,102341.47
2022-12-31T10:43:31.812Z,102352.84
2022-12-31T10:46:01.973Z,102336.22
2022-12-31T10:48:37.608Z,102328.16
2022-12-31T10:51:20.313Z,102331.59
2022-12-31T10:54:11.124Z,102331.63
2022-12-31T10:56:40.595Z,102320.34
2022-12-31T10:59:26.156Z,102307.44
2022-12-31T11:01:56.272Z,102312.81
2022-12-31T11:04:32.219Z,102305.81
2022-12-31T11:07:08.267Z,102306.00
2022-12-31T11:09:47.634Z,102291.66
2022-12-31T11:12:18.268Z,102293.66
2022-12-31T11:15:04.230Z,102295.25
2022-12-31T11:17:47.398Z,102307.28
2022-12-31T11:20:42.821Z,102299.53
2022-12-31T11:23:10.283Z,102295.81
2022-12-31T11:25:52.182Z,102290.03
2022-12-31T11:28:32.041Z,102297.03
2022-12-31T11:30:59.654Z,102287.94
2022-12-31T11:33:50.459Z,102289.94
2022-12-31T11:36:18.691Z,102288.75
2022-12-31T11:38:51.742Z,102284.69
2022-12-31T11:41:25.712Z,102292.28
2022-12-31T11:43:54.289Z,102287.81
2022-12-31T11:46:40.976Z,102282.00
2022-12-31T11:49:13.071Z,102284.41
2022-12-31T11:52:00.860Z,102282.09
2022-12-31T11:54:43.987Z,102271.00
2022-12-31T11:57:17.800Z,102273.81
2022-12-31T11:59:48.308Z,102273.22
2022-12-31T12:02:21.939Z,102264.47
2022-12-31T12:04:52.836Z,102267.22
2022-12-31T12:07:20.222Z,102268.16
2022-12-31T12:09:53.041Z,102268.34
2022-12-31T12:12:27.079Z,102259.19
2022-12-31T12:14:54.845Z,102256.47
2022-12-31T12:17:35.802Z,102249.66
2022-12-31T12:20:07.379Z,102248.22
2022-12-31T12:22:34.414Z,102244.13
2022-12-31T12:25:06.710Z,102249.91
2022-12-31T12:27:34.895Z,102247.28
2022-12-31T12:30:08.957Z,102241.41
2022-12-31T12:32:36.055Z,102235.72
2022-12-31T12:35:23.970Z,102233.22
2022-12-31T12:38:11.168Z,102231.88
2022-12-31T12:40:38.955Z,102236.22
2022-12-31T12:43:07.236Z,102234.19
2022-12-31T12:45:44.241Z,102233.84
2022-12-31T12:48:20.261Z,102224.28
2022-12-31T12:50:55.224Z,102232.78
2022-12-31T12:53:37.493Z,102229.94
2022-12-31T12:56:26.351Z,102229.31
2022-12-31T12:59:13.789Z,102227.34
2022-12-31T13:01:54.080Z,102218.28
2022-12-31T13:04:39.202Z,102223.88
2022-12-31T13:07:12.439Z,102223.44
2022-12-31T13:09:48.562Z,102219.66
2022-12-31T13:12:22.715Z,102221.16
2022-12-31T13:15:03.379Z,102222.78
2022-12-31T13:17:51.024Z,102218.22
2022-12-31T13:20:24.025Z,102219.44
2022-12-31T13:23:15.194Z,102221.56
2022-12-31T13:26:06.686Z,102219.50
2022-12-31T13:28:43.894Z,102225.84
2022-12-31T13:31:21.239Z,102218.91
2022-12-31T13:34:09.149Z,102213.59
2022-12-31T13:36:50.460Z,102207.03
2022-12-31T13:39:27.011Z,102216.72
2022-12-31T13:42:16.411Z,102221.00
2022-12-31T13:45:06.095Z,102199.69
2022-12-31T13:47:40.187Z,102200.69
2022-12-31T13:50:34.412Z,102202.13
2022-12-31T13:53:25.459Z,102202.41
2022-12-31T13:56:05.136Z,102185.63
2022-12-31T13:58:46.396Z,102188.53
2022-12-31T14:01:35.447Z,102189.47
2022-12-31T14:04:25.196Z,102194.53
2022-12-31T14:07:02.926Z,102188.38
2022-12-31T14:09:34.140Z,102192.00
2022-12-31T14:12:03.905Z,102198.16
2022-12-31T14:14:53.792Z,102200.19
2022-12-31T14:17:34.010Z,102203.00
2022-12-31T14:20:09.169Z,102210.53
2022-12-31T14:23:07.829Z,102208.13
2022-12-31T14:25:52.637Z,102212.63
2022-12-31T14:28:38.336Z,102205.56
2022-12-31T14:31:28.515Z,102206.75
2022-12-31T14:34:08.701Z,102195.63
2022-12-31T14:36:38.892Z,102199.16
2022-12-31T14:39:19.195Z,102202.22
2022-12-31T14:41:58.503Z,102203.84
2022-12-31T14:44:37.411Z,102201.63
2022-12-31T14:47:31.211Z,102201.31
2022-12-31T14:50:12.769Z,102199.00
2022-12-31T14:53:09.651Z,102199.00
2022-12-31T14:55:45.773Z,102202.34
2022-12-31T14:58:29.764Z,102208.88
2022-12-31T15:01:16.225Z,102204.25
2022-12-31T15:03:46.035Z,102211.41
2022-12-31T15:06:13.514Z,102212.06
2022-12-31T15:09:09.539Z,102210.41
2022-12-31T15:11:51.938Z,102211.56
2022-12-31T15:14:37.208Z,102216.81
2022-12-31T15:17:12.432Z,102211.63
2022-12-31T15:19:45.045Z,102207.31
2022-12-31T15:22:36.518Z,102213.00
2022-12-31T15:25:04.977Z,102213.34
2022-12-31T15:27:45.630Z,102223.97
2022-12-31T15:30:34.740Z,102217.78
2022-12-31T15:33:23.133Z,102213.63
2022-12-31T15:35:52.493Z,102219.75
2022-12-31T15:38:31.993Z,102208.28
2022-12-31T15:41:00.871Z,102219.94
2022-12-31T15:43:52.190Z,102218.91
2022-12-31T15:46:22.976Z,102216.41
2022-12-31T15:49:02.016Z,102213.78
2022-12-31T15:51:58.882Z,102217.31
2022-12-31T15:54:39.127Z,102212.91
2022-12-31T15:57:14.984Z,102215.47
2022-12-31T15:59:44.760Z,102212.88
2022-12-31T16:02:24.141Z,102217.28
2022-12-31T16:04:58.669Z,102212.75
2022-12-31T16:07:29.563Z,102218.88
2022-12-31T16:09:59.702Z,102218.75
2022-12-31T16:12:34.412Z,102219.75
2022-12-31T16:15:14.148Z,102222.41
2022-12-31T16:17:43.309Z,102231.94
2022-12-31T16:20:27.378Z,102237.09
2022-12-31T16:22:58.097Z,102238.94
2022-12-31T16:25:31.246Z,102249.06
2022-12-31T16:28:02.607Z,102266.31
2022-12-31T16:30:31.567Z,102262.88
2022-12-31T16:33:04.933Z,102263.91
2022-12-31T16:35:38.237Z,102262.59
2022-12-31T16:38:15.095Z,102267.38
2022-12-31T16:40:49.421Z,102270.84
2022-12-31T16:43:28.672Z,102283.66
2022-12-31T16:46:08.074Z,102282.34
2022-12-31T16:48:35.981Z,102285.69
2022-12-31T16:51:04.158Z,102283.25
2022-12-31T16:53:38.552Z,102285.06
2022-12-31T16:56:11.621Z,102288.59
2022-12-31T16:58:47.691Z,102292.28
2022-12-31T17:01:15.134Z,102291.97
2022-12-31T17:03:47.162Z,102307.28
2022-12-31T17:06:16.876Z,102308.63
2022-12-31T17:08:56.768Z,102298.97
2022-12-31T17:11:42.565Z,102301.88
2022-12-31T17:14:15.342Z,102305.94
2022-12-31T17:17:01.589Z,102314.09
2022-12-31T17:19:30.089Z,102319.41
2022-12-31T17:21:58.330Z,102319.13
2022-12-31T17:24:29.925Z,102320.06
2022-12-31T17:27:03.737Z,102326.53
2022-12-31T17:29:32.347Z,102324.41
2022-12-31T17:32:03.012Z,102331.34
2022-12-31T17:34:32.734Z,102327.78
2022-12-31T17:37:17.873Z,102328.91
2022-12-31T17:39:48.334Z,102339.84
2022-12-31T17:42:26.847Z,102341.59
2022-12-31T17:44:59.809Z,102335.03
2022-12-31T17:47:33.892Z,102337.84
2022-12-31T17:50:07.832Z,102335.94
2022-12-31T17:52:35.614Z,102333.31
2022-12-31T17:55:03.513Z,102333.75
2022-12-31T17:57:31.119Z,102334.72
2022-12-31T17:59:59.770Z,102333.25
2022-12-31T18:02:28.434Z,102338.63
2022-12-31T18:04:56.956Z,102341.22
2022-12-31T18:07:24.890Z,102342.88
2022-12-31T18:09:53.295Z,102338.53
2022-12-31T18:12:21.492Z,102349.09
2022-12-31T18:14:49.162Z,102350.81
2022-12-31T18:17:16.736Z,102359.09
2022-12-31T18:20:04.336Z,102367.25
2022-12-31T18:22:34.346Z,102372.59
2022-12-31T18:25:02.614Z,102364.97
2022-12-31T18:27:34.501Z,102364.13
2022-12-31T18:30:05.574Z,102369.72
2022-12-31T18:32:35.238Z,102382.47
2022-12-31T18:35:04.125Z,102380.56
2022-12-31T18:37:33.456Z,102380.00
2022-12-31T18:40:00.950Z,102391.03
2022-12-31T18:42:38.582Z,102393.00
2022-12-31T18:45:22.710Z,102386.81
2022-12-31T18:48:03.372Z,102387.00
2022-12-31T18:50:33.391Z,102395.28
2022-12-31T18:53:07.171Z,102395.06
2022-12-31T18:55:42.280Z,102398.47
2022-12-31T18:58:19.805Z,102403.25
2022-12-31T19:00:50.160Z,102401.75
2022-12-31T19:03:22.271Z,102412.03
2022-12-31T19:05:51.338Z,102409.66
2022-12-31T19:08:23.257Z,102414.44
2022-12-31T19:10:59.171Z,102417.19
2022-12-31T19:13:27.250Z,102418.38
2022-12-31T19:15:55.812Z,102415.00
2022-12-31T19:18:28.064Z,102418.03
2022-12-31T19:20:55.181Z,102421.13
2022-12-31T19:23:22.774Z,102426.19
2022-12-31T19:26:03.348Z,102428.25
2022-12-31T19:28:30.436Z,102432.53
2022-12-31T19:31:08.778Z,102436.50
2022-12-31T19:33:45.102Z,102436.41
2022-12-31T19:36:17.339Z,102440.31
2022-12-31T19:38:57.535Z,102436.72
2022-12-31T19:41:26.935Z,102449.03
2022-12-31T19:44:19.220Z,102439.31
2022-12-31T19:46:49.540Z,102444.13
2022-12-31T19:49:30.190Z,102448.66
2022-12-31T19:52:20.166Z,102442.78
2022-12-31T19:55:05.186Z,102446.25
2022-12-31T19:57:52.613Z,102454.09
2022-12-31T20:00:41.863Z,102453.19
2022-12-31T20:03:32.046Z,102450.56
2022-12-31T20:06:26.699Z,102448.91
2022-12-31T20:12:09.257Z,102446.06
2022-12-31T20:18:08.759Z,102459.66
2022-12-31T20:20:55.540Z,102473.25
2022-12-31T20:23:41.608Z,102468.13
2022-12-31T20:26:09.193Z,102459.84
2022-12-31T20:29:07.610Z,102458.53
2022-12-31T20:31:52.759Z,102460.41
2022-12-31T20:34:22.501Z,102466.63
2022-12-31T20:36:57.176Z,102472.16
2022-12-31T20:39:24.235Z,102468.19
2022-12-31T20:41:51.513Z,102481.72
2022-12-31T20:44:18.559Z,102486.50
2022-12-31T20:46:48.852Z,102494.47
2022-12-31T20:49:44.303Z,102498.97
2022-12-31T20:52:08.810Z,102501.63
2022-12-31T20:54:38.148Z,102497.22
2022-12-31T20:57:07.924Z,102492.88
2022-12-31T20:59:34.883Z,102483.25
2022-12-31T21:02:21.061Z,102488.47
2022-12-31T21:04:49.610Z,102483.22
2022-12-31T21:07:19.652Z,102492.75
2022-12-31T21:09:49.164Z,102490.13
2022-12-31T21:12:35.146Z,102490.94
2022-12-31T21:15:02.743Z,102489.25
2022-12-31T21:17:36.045Z,102496.13
2022-12-31T21:20:06.054Z,102499.53
2022-12-31T21:22:33.961Z,102498.53
2022-12-31T21:25:06.708Z,102498.50
2022-12-31T21:27:48.763Z,102495.09
2022-12-31T21:30:21.264Z,102494.03
2022-12-31T21:32:50.602Z,102489.56
2022-12-31T21:38:05.848Z,102493.75
2022-12-31T21:40:35.890Z,102490.22
2022-12-31T21:43:02.985Z,102490.31
2022-12-31T21:45:31.477Z,102499.00
2022-12-31T21:48:20.149Z,102493.56
2022-12-31T21:50:48.721Z,102491.72
2022-12-31T21:53:21.806Z,102487.94
2022-12-31T21:56:09.276Z,102483.78
2022-12-31T21:58:40.750Z,102494.19
2022-12-31T22:01:26.967Z,102499.22
2022-12-31T22:06:47.240Z,102499.22
2022-12-31T22:09:36.275Z,102497.31
2022-12-31T22:12:09.221Z,102496.47
2022-12-31T22:15:14.693Z,102503.53
2022-12-31T22:17:48.285Z,102497.31
2022-12-31T22:20:29.521Z,102501.72
2022-12-31T22:23:02.944Z,102491.03
2022-12-31T22:25:36.135Z,102495.34
2022-12-31T22:28:37.613Z,102492.81
2022-12-31T22:31:03.583Z,102494.44
2022-12-31T22:33:36.160Z,102492.50
2022-12-31T22:36:08.825Z,102496.03
2022-12-31T22:38:38.547Z,102500.06
2022-12-31T22:41:10.512Z,102496.69
2022-12-31T22:43:39.524Z,102491.25
2022-12-31T22:46:16.455Z,102487.69
2022-12-31T22:48:46.207Z,102494.63
2022-12-31T22:51:55.227Z,102497.38
2022-12-31T22:54:18.148Z,102491.97
2022-12-31T22:56:49.395Z,102495.19
2022-12-31T23:02:23.802Z,102492.06
2022-12-31T23:04:50.831Z,102491.13
2022-12-31T23:07:17.974Z,102497.81
2022-12-31T23:13:16.962Z,102491.38
2022-12-31T23:16:14.044Z,102490.53
2022-12-31T23:19:13.385Z,102489.56
2022-12-31T23:21:59.017Z,102495.69
2022-12-31T23:24:28.801Z,102503.09
2022-12-31T23:26:59.236Z,102502.00
2022-12-31T23:29:26.618Z,102491.56
2022-12-31T23:31:53.659Z,102498.44
2022-12-31T23:34:23.472Z,102489.72
2022-12-31T23:39:32.611Z,102483.53
2022-12-31T23:42:02.921Z,102490.50
2022-12-31T23:44:50.542Z,102487.66
2022-12-31T23:47:17.781Z,102496.44
2022-12-31T23:49:45.276Z,102495.63
2022-12-31T23:52:15.793Z,102486.00
2022-12-31T23:54:55.965Z,102491.16
2022-12-31T23:57:27.126Z,102486.88
